sensor_id;sensor_type;location;lat;lon;timestamp;P1;durP1;ratioP1;P2;durP2;ratioP2
11877;SDS011;5998;42.676;23.268;2023-04-01T00:01:03;16.47;;;9.23;;
11877;SDS011;5998;42.676;23.268;2023-04-01T00:03:32;20.03;;;11.67;;
11877;SDS011;5998;42.676;23.268;2023-04-01T00:06:01;20.23;;;12.43;;
11877;SDS011;5998;42.676;23.268;2023-04-01T00:08:28;23.23;;;12.13;;
11877;SDS011;5998;42.676;23.268;2023-04-01T00:10:56;23.33;;;13.50;;
11877;SDS011;5998;42.676;23.268;2023-04-01T00:13:23;24.83;;;13.60;;
11877;SDS011;5998;42.676;23.268;2023-04-01T00:15:51;22.33;;;13.67;;
11877;SDS011;5998;42.676;23.268;2023-04-01T00:18:18;24.10;;;13.17;;
11877;SDS011;5998;42.676;23.268;2023-04-01T00:20:45;20.67;;;13.40;;
11877;SDS011;5998;42.676;23.268;2023-04-01T00:23:14;20.90;;;13.80;;
11877;SDS011;5998;42.676;23.268;2023-04-01T00:25:41;19.50;;;12.43;;
11877;SDS011;5998;42.676;23.268;2023-04-01T00:28:08;25.23;;;13.83;;
11877;SDS011;5998;42.676;23.268;2023-04-01T00:30:35;23.40;;;12.83;;
11877;SDS011;5998;42.676;23.268;2023-04-01T00:33:02;20.33;;;13.73;;
11877;SDS011;5998;42.676;23.268;2023-04-01T00:35:29;22.83;;;14.00;;
11877;SDS011;5998;42.676;23.268;2023-04-01T00:37:57;23.10;;;13.00;;
11877;SDS011;5998;42.676;23.268;2023-04-01T00:40:27;19.43;;;13.23;;
11877;SDS011;5998;42.676;23.268;2023-04-01T00:42:56;22.23;;;13.80;;
11877;SDS011;5998;42.676;23.268;2023-04-01T00:45:27;19.77;;;13.33;;
11877;SDS011;5998;42.676;23.268;2023-04-01T00:47:59;22.00;;;13.33;;
11877;SDS011;5998;42.676;23.268;2023-04-01T00:50:30;19.10;;;13.37;;
11877;SDS011;5998;42.676;23.268;2023-04-01T00:52:58;21.80;;;14.17;;
11877;SDS011;5998;42.676;23.268;2023-04-01T00:55:29;21.57;;;13.70;;
11877;SDS011;5998;42.676;23.268;2023-04-01T00:57:59;20.00;;;13.60;;
11877;SDS011;5998;42.676;23.268;2023-04-01T01:00:30;20.03;;;13.47;;
11877;SDS011;5998;42.676;23.268;2023-04-01T01:02:57;18.47;;;13.50;;
11877;SDS011;5998;42.676;23.268;2023-04-01T01:05:28;21.73;;;12.97;;
11877;SDS011;5998;42.676;23.268;2023-04-01T01:08:06;16.90;;;12.20;;
11877;SDS011;5998;42.676;23.268;2023-04-01T01:10:41;20.53;;;12.80;;
11877;SDS011;5998;42.676;23.268;2023-04-01T01:13:15;22.50;;;12.30;;
11877;SDS011;5998;42.676;23.268;2023-04-01T01:15:44;19.43;;;12.17;;
11877;SDS011;5998;42.676;23.268;2023-04-01T01:18:15;21.07;;;12.60;;
11877;SDS011;5998;42.676;23.268;2023-04-01T01:20:57;18.70;;;12.13;;
11877;SDS011;5998;42.676;23.268;2023-04-01T01:23:57;19.73;;;11.87;;
11877;SDS011;5998;42.676;23.268;2023-04-01T01:32:44;15.77;;;10.43;;
11877;SDS011;5998;42.676;23.268;2023-04-01T01:35:23;16.23;;;10.20;;
11877;SDS011;5998;42.676;23.268;2023-04-01T01:37:56;14.90;;;9.17;;
11877;SDS011;5998;42.676;23.268;2023-04-01T01:40:27;16.57;;;9.37;;
11877;SDS011;5998;42.676;23.268;2023-04-01T01:42:56;14.73;;;9.43;;
11877;SDS011;5998;42.676;23.268;2023-04-01T01:45:26;14.13;;;8.53;;
11877;SDS011;5998;42.676;23.268;2023-04-01T01:47:55;11.90;;;7.67;;
11877;SDS011;5998;42.676;23.268;2023-04-01T01:50:24;8.80;;;6.30;;
11877;SDS011;5998;42.676;23.268;2023-04-01T01:52:59;13.97;;;6.80;;
11877;SDS011;5998;42.676;23.268;2023-04-01T01:55:27;17.00;;;7.03;;
11877;SDS011;5998;42.676;23.268;2023-04-01T01:57:57;9.37;;;6.40;;
11877;SDS011;5998;42.676;23.268;2023-04-01T02:00:28;12.80;;;6.47;;
11877;SDS011;5998;42.676;23.268;2023-04-01T02:02:55;15.70;;;6.27;;
11877;SDS011;5998;42.676;23.268;2023-04-01T02:05:26;8.83;;;6.10;;
11877;SDS011;5998;42.676;23.268;2023-04-01T02:07:57;14.30;;;6.30;;
11877;SDS011;5998;42.676;23.268;2023-04-01T02:10:28;11.67;;;7.00;;
11877;SDS011;5998;42.676;23.268;2023-04-01T02:13:00;12.33;;;7.30;;
11877;SDS011;5998;42.676;23.268;2023-04-01T02:15:31;12.77;;;7.03;;
11877;SDS011;5998;42.676;23.268;2023-04-01T02:18:07;13.53;;;7.23;;
11877;SDS011;5998;42.676;23.268;2023-04-01T02:20:35;11.80;;;7.33;;
11877;SDS011;5998;42.676;23.268;2023-04-01T02:23:04;11.33;;;7.03;;
11877;SDS011;5998;42.676;23.268;2023-04-01T02:25:33;14.87;;;8.40;;
11877;SDS011;5998;42.676;23.268;2023-04-01T02:28:02;14.40;;;7.50;;
11877;SDS011;5998;42.676;23.268;2023-04-01T02:30:33;11.43;;;7.43;;
11877;SDS011;5998;42.676;23.268;2023-04-01T02:33:02;10.93;;;7.13;;
11877;SDS011;5998;42.676;23.268;2023-04-01T02:35:30;12.80;;;6.77;;
11877;SDS011;5998;42.676;23.268;2023-04-01T02:38:00;12.80;;;7.30;;
11877;SDS011;5998;42.676;23.268;2023-04-01T02:40:27;13.13;;;6.73;;
11877;SDS011;5998;42.676;23.268;2023-04-01T02:42:54;17.17;;;7.30;;
11877;SDS011;5998;42.676;23.268;2023-04-01T02:45:21;13.33;;;6.63;;
11877;SDS011;5998;42.676;23.268;2023-04-01T02:47:47;14.90;;;6.80;;
11877;SDS011;5998;42.676;23.268;2023-04-01T02:50:14;10.47;;;6.90;;
11877;SDS011;5998;42.676;23.268;2023-04-01T02:52:41;10.00;;;7.03;;
11877;SDS011;5998;42.676;23.268;2023-04-01T02:55:09;11.17;;;7.33;;
11877;SDS011;5998;42.676;23.268;2023-04-01T02:57:36;9.43;;;5.83;;
11877;SDS011;5998;42.676;23.268;2023-04-01T03:00:03;11.97;;;7.30;;
11877;SDS011;5998;42.676;23.268;2023-04-01T03:02:36;12.57;;;7.00;;
11877;SDS011;5998;42.676;23.268;2023-04-01T03:05:03;8.73;;;6.50;;
11877;SDS011;5998;42.676;23.268;2023-04-01T03:07:31;10.67;;;6.70;;
11877;SDS011;5998;42.676;23.268;2023-04-01T03:09:57;11.83;;;6.27;;
11877;SDS011;5998;42.676;23.268;2023-04-01T03:12:26;17.37;;;7.43;;
11877;SDS011;5998;42.676;23.268;2023-04-01T03:14:52;11.77;;;7.57;;
11877;SDS011;5998;42.676;23.268;2023-04-01T03:17:19;20.17;;;8.13;;
11877;SDS011;5998;42.676;23.268;2023-04-01T03:19:46;11.50;;;7.73;;
11877;SDS011;5998;42.676;23.268;2023-04-01T03:22:12;13.80;;;7.90;;
11877;SDS011;5998;42.676;23.268;2023-04-01T03:24:39;13.23;;;7.67;;
11877;SDS011;5998;42.676;23.268;2023-04-01T03:27:06;12.80;;;8.07;;
11877;SDS011;5998;42.676;23.268;2023-04-01T03:29:34;13.10;;;8.13;;
11877;SDS011;5998;42.676;23.268;2023-04-01T03:32:01;7.87;;;5.40;;
11877;SDS011;5998;42.676;23.268;2023-04-01T03:34:28;11.57;;;7.43;;
11877;SDS011;5998;42.676;23.268;2023-04-01T03:36:54;15.00;;;7.80;;
11877;SDS011;5998;42.676;23.268;2023-04-01T03:39:21;10.40;;;6.13;;
11877;SDS011;5998;42.676;23.268;2023-04-01T03:41:48;13.73;;;8.47;;
11877;SDS011;5998;42.676;23.268;2023-04-01T03:44:15;15.80;;;8.83;;
11877;SDS011;5998;42.676;23.268;2023-04-01T03:46:43;13.93;;;8.50;;
11877;SDS011;5998;42.676;23.268;2023-04-01T03:49:10;16.93;;;8.93;;
11877;SDS011;5998;42.676;23.268;2023-04-01T03:51:37;16.73;;;8.20;;
11877;SDS011;5998;42.676;23.268;2023-04-01T03:54:04;13.10;;;8.53;;
11877;SDS011;5998;42.676;23.268;2023-04-01T03:56:31;9.00;;;6.33;;
11877;SDS011;5998;42.676;23.268;2023-04-01T03:58:58;12.20;;;8.00;;
11877;SDS011;5998;42.676;23.268;2023-04-01T04:01:28;11.37;;;7.20;;
11877;SDS011;5998;42.676;23.268;2023-04-01T04:03:56;10.80;;;7.17;;
11877;SDS011;5998;42.676;23.268;2023-04-01T04:06:23;12.27;;;7.63;;
11877;SDS011;5998;42.676;23.268;2023-04-01T04:08:50;12.03;;;7.27;;
11877;SDS011;5998;42.676;23.268;2023-04-01T04:11:17;10.57;;;6.90;;
11877;SDS011;5998;42.676;23.268;2023-04-01T04:13:45;11.33;;;7.23;;
11877;SDS011;5998;42.676;23.268;2023-04-01T04:16:13;12.23;;;8.00;;
11877;SDS011;5998;42.676;23.268;2023-04-01T04:18:40;14.53;;;7.87;;
11877;SDS011;5998;42.676;23.268;2023-04-01T04:21:10;13.43;;;8.57;;
11877;SDS011;5998;42.676;23.268;2023-04-01T04:23:38;13.23;;;8.50;;
11877;SDS011;5998;42.676;23.268;2023-04-01T04:26:06;13.73;;;7.43;;
11877;SDS011;5998;42.676;23.268;2023-04-01T04:28:34;12.67;;;7.90;;
11877;SDS011;5998;42.676;23.268;2023-04-01T04:31:01;11.57;;;8.17;;
11877;SDS011;5998;42.676;23.268;2023-04-01T04:33:29;11.00;;;7.73;;
11877;SDS011;5998;42.676;23.268;2023-04-01T04:35:57;13.63;;;8.67;;
11877;SDS011;5998;42.676;23.268;2023-04-01T04:38:25;9.43;;;7.40;;
11877;SDS011;5998;42.676;23.268;2023-04-01T04:40:53;12.37;;;8.80;;
11877;SDS011;5998;42.676;23.268;2023-04-01T04:43:20;15.80;;;9.13;;
11877;SDS011;5998;42.676;23.268;2023-04-01T04:45:47;13.77;;;9.03;;
11877;SDS011;5998;42.676;23.268;2023-04-01T04:48:15;14.63;;;9.17;;
11877;SDS011;5998;42.676;23.268;2023-04-01T04:50:43;11.87;;;9.03;;
11877;SDS011;5998;42.676;23.268;2023-04-01T04:53:11;14.20;;;9.30;;
11877;SDS011;5998;42.676;23.268;2023-04-01T04:55:42;15.20;;;8.73;;
11877;SDS011;5998;42.676;23.268;2023-04-01T04:58:09;16.43;;;9.47;;
11877;SDS011;5998;42.676;23.268;2023-04-01T05:00:36;15.87;;;9.20;;
11877;SDS011;5998;42.676;23.268;2023-04-01T05:03:03;13.27;;;9.27;;
11877;SDS011;5998;42.676;23.268;2023-04-01T05:05:29;15.27;;;9.70;;
11877;SDS011;5998;42.676;23.268;2023-04-01T05:07:56;12.67;;;9.17;;
11877;SDS011;5998;42.676;23.268;2023-04-01T05:10:22;11.13;;;7.37;;
11877;SDS011;5998;42.676;23.268;2023-04-01T05:12:51;11.67;;;7.50;;
11877;SDS011;5998;42.676;23.268;2023-04-01T05:15:17;10.30;;;7.40;;
11877;SDS011;5998;42.676;23.268;2023-04-01T05:17:44;9.80;;;6.50;;
11877;SDS011;5998;42.676;23.268;2023-04-01T05:20:11;15.10;;;8.50;;
11877;SDS011;5998;42.676;23.268;2023-04-01T05:22:40;12.07;;;7.60;;
11877;SDS011;5998;42.676;23.268;2023-04-01T05:25:07;10.67;;;8.23;;
11877;SDS011;5998;42.676;23.268;2023-04-01T05:27:33;9.10;;;7.10;;
11877;SDS011;5998;42.676;23.268;2023-04-01T05:30:02;9.27;;;7.73;;
11877;SDS011;5998;42.676;23.268;2023-04-01T05:32:30;12.43;;;8.40;;
11877;SDS011;5998;42.676;23.268;2023-04-01T05:34:57;11.67;;;8.93;;
11877;SDS011;5998;42.676;23.268;2023-04-01T05:37:25;12.73;;;8.43;;
11877;SDS011;5998;42.676;23.268;2023-04-01T05:39:52;14.07;;;8.53;;
11877;SDS011;5998;42.676;23.268;2023-04-01T05:42:19;10.97;;;6.43;;
11877;SDS011;5998;42.676;23.268;2023-04-01T05:44:45;11.67;;;7.70;;
11877;SDS011;5998;42.676;23.268;2023-04-01T05:47:13;9.63;;;6.93;;
11877;SDS011;5998;42.676;23.268;2023-04-01T05:49:40;9.77;;;6.47;;
11877;SDS011;5998;42.676;23.268;2023-04-01T05:52:07;8.50;;;5.17;;
11877;SDS011;5998;42.676;23.268;2023-04-01T05:54:36;9.43;;;5.90;;
11877;SDS011;5998;42.676;23.268;2023-04-01T05:57:02;7.60;;;5.93;;
11877;SDS011;5998;42.676;23.268;2023-04-01T05:59:29;8.90;;;5.40;;
11877;SDS011;5998;42.676;23.268;2023-04-01T06:01:57;11.50;;;6.47;;
11877;SDS011;5998;42.676;23.268;2023-04-01T06:04:26;9.10;;;5.40;;
11877;SDS011;5998;42.676;23.268;2023-04-01T06:06:59;12.17;;;6.00;;
11877;SDS011;5998;42.676;23.268;2023-04-01T06:09:26;12.10;;;6.67;;
11877;SDS011;5998;42.676;23.268;2023-04-01T06:12:00;11.23;;;6.00;;
11877;SDS011;5998;42.676;23.268;2023-04-01T06:14:42;9.00;;;5.20;;
11877;SDS011;5998;42.676;23.268;2023-04-01T06:17:20;11.73;;;5.47;;
11877;SDS011;5998;42.676;23.268;2023-04-01T06:19:58;10.80;;;4.77;;
11877;SDS011;5998;42.676;23.268;2023-04-01T06:22:40;8.93;;;4.07;;
11877;SDS011;5998;42.676;23.268;2023-04-01T06:25:38;11.17;;;4.43;;
11877;SDS011;5998;42.676;23.268;2023-04-01T06:28:30;10.70;;;5.97;;
11877;SDS011;5998;42.676;23.268;2023-04-01T06:31:24;8.63;;;4.07;;
11877;SDS011;5998;42.676;23.268;2023-04-01T06:34:05;8.57;;;4.43;;
11877;SDS011;5998;42.676;23.268;2023-04-01T06:36:50;9.63;;;4.60;;
11877;SDS011;5998;42.676;23.268;2023-04-01T06:39:35;9.80;;;5.33;;
11877;SDS011;5998;42.676;23.268;2023-04-01T06:42:30;5.63;;;4.00;;
11877;SDS011;5998;42.676;23.268;2023-04-01T06:45:07;8.77;;;3.80;;
11877;SDS011;5998;42.676;23.268;2023-04-01T06:47:46;10.33;;;3.80;;
11877;SDS011;5998;42.676;23.268;2023-04-01T06:50:24;8.10;;;4.10;;
11877;SDS011;5998;42.676;23.268;2023-04-01T06:52:58;8.50;;;4.00;;
11877;SDS011;5998;42.676;23.268;2023-04-01T06:55:32;10.23;;;4.60;;
11877;SDS011;5998;42.676;23.268;2023-04-01T06:58:04;8.10;;;3.63;;
11877;SDS011;5998;42.676;23.268;2023-04-01T07:00:36;7.53;;;3.83;;
11877;SDS011;5998;42.676;23.268;2023-04-01T07:03:07;5.47;;;3.73;;
11877;SDS011;5998;42.676;23.268;2023-04-01T07:05:44;11.57;;;4.27;;
11877;SDS011;5998;42.676;23.268;2023-04-01T07:08:13;7.43;;;3.73;;
11877;SDS011;5998;42.676;23.268;2023-04-01T07:10:45;6.53;;;4.23;;
11877;SDS011;5998;42.676;23.268;2023-04-01T07:13:18;10.83;;;4.60;;
11877;SDS011;5998;42.676;23.268;2023-04-01T07:15:51;8.17;;;4.27;;
11877;SDS011;5998;42.676;23.268;2023-04-01T07:18:28;4.97;;;3.97;;
11877;SDS011;5998;42.676;23.268;2023-04-01T07:20:58;8.73;;;4.30;;
11877;SDS011;5998;42.676;23.268;2023-04-01T07:23:28;10.53;;;4.33;;
11877;SDS011;5998;42.676;23.268;2023-04-01T07:25:59;7.17;;;4.60;;
11877;SDS011;5998;42.676;23.268;2023-04-01T07:28:31;7.53;;;4.30;;
11877;SDS011;5998;42.676;23.268;2023-04-01T07:31:03;12.70;;;4.70;;
11877;SDS011;5998;42.676;23.268;2023-04-01T07:33:39;7.80;;;4.50;;
11877;SDS011;5998;42.676;23.268;2023-04-01T07:36:13;13.93;;;5.07;;
11877;SDS011;5998;42.676;23.268;2023-04-01T07:38:48;7.17;;;3.67;;
11877;SDS011;5998;42.676;23.268;2023-04-01T07:41:26;6.13;;;4.33;;
11877;SDS011;5998;42.676;23.268;2023-04-01T07:44:01;9.40;;;4.13;;
11877;SDS011;5998;42.676;23.268;2023-04-01T07:46:46;7.20;;;4.00;;
11877;SDS011;5998;42.676;23.268;2023-04-01T07:49:28;7.03;;;3.80;;
11877;SDS011;5998;42.676;23.268;2023-04-01T07:52:03;5.40;;;4.27;;
11877;SDS011;5998;42.676;23.268;2023-04-01T07:54:40;11.00;;;4.13;;
11877;SDS011;5998;42.676;23.268;2023-04-01T07:57:16;8.30;;;4.43;;
11877;SDS011;5998;42.676;23.268;2023-04-01T07:59:49;9.53;;;4.27;;
11877;SDS011;5998;42.676;23.268;2023-04-01T08:02:28;8.93;;;4.80;;
11877;SDS011;5998;42.676;23.268;2023-04-01T08:05:08;6.63;;;4.23;;
11877;SDS011;5998;42.676;23.268;2023-04-01T08:07:45;8.57;;;4.40;;
11877;SDS011;5998;42.676;23.268;2023-04-01T08:10:20;6.73;;;3.83;;
11877;SDS011;5998;42.676;23.268;2023-04-01T08:12:56;8.20;;;4.40;;
11877;SDS011;5998;42.676;23.268;2023-04-01T08:15:34;11.17;;;4.73;;
11877;SDS011;5998;42.676;23.268;2023-04-01T08:18:12;8.47;;;4.57;;
11877;SDS011;5998;42.676;23.268;2023-04-01T08:20:47;10.17;;;4.70;;
11877;SDS011;5998;42.676;23.268;2023-04-01T08:23:17;15.07;;;5.10;;
11877;SDS011;5998;42.676;23.268;2023-04-01T08:25:50;13.60;;;6.33;;
11877;SDS011;5998;42.676;23.268;2023-04-01T08:28:22;12.00;;;7.90;;
11877;SDS011;5998;42.676;23.268;2023-04-01T08:30:52;14.47;;;7.57;;
11877;SDS011;5998;42.676;23.268;2023-04-01T08:33:23;7.60;;;4.43;;
11877;SDS011;5998;42.676;23.268;2023-04-01T08:35:52;11.47;;;5.90;;
11877;SDS011;5998;42.676;23.268;2023-04-01T08:38:26;7.33;;;4.50;;
11877;SDS011;5998;42.676;23.268;2023-04-01T08:41:00;10.10;;;5.60;;
11877;SDS011;5998;42.676;23.268;2023-04-01T08:43:46;10.53;;;5.50;;
11877;SDS011;5998;42.676;23.268;2023-04-01T08:49:54;7.37;;;4.03;;
11877;SDS011;5998;42.676;23.268;2023-04-01T08:52:33;7.60;;;3.90;;
11877;SDS011;5998;42.676;23.268;2023-04-01T08:55:19;8.60;;;4.17;;
11877;SDS011;5998;42.676;23.268;2023-04-01T08:58:05;9.93;;;3.63;;
11877;SDS011;5998;42.676;23.268;2023-04-01T09:00:43;6.07;;;3.57;;
11877;SDS011;5998;42.676;23.268;2023-04-01T09:03:35;5.97;;;3.40;;
11877;SDS011;5998;42.676;23.268;2023-04-01T09:06:25;10.03;;;4.03;;
11877;SDS011;5998;42.676;23.268;2023-04-01T09:09:02;11.67;;;4.47;;
11877;SDS011;5998;42.676;23.268;2023-04-01T09:11:47;8.57;;;4.23;;
11877;SDS011;5998;42.676;23.268;2023-04-01T09:17:42;10.87;;;5.40;;
11877;SDS011;5998;42.676;23.268;2023-04-01T09:23:32;11.30;;;4.10;;
11877;SDS011;5998;42.676;23.268;2023-04-01T09:26:27;8.67;;;3.80;;
11877;SDS011;5998;42.676;23.268;2023-04-01T09:29:09;9.00;;;3.80;;
11877;SDS011;5998;42.676;23.268;2023-04-01T09:31:54;9.20;;;4.27;;
11877;SDS011;5998;42.676;23.268;2023-04-01T09:34:48;9.60;;;3.03;;
11877;SDS011;5998;42.676;23.268;2023-04-01T09:37:20;5.73;;;2.20;;
11877;SDS011;5998;42.676;23.268;2023-04-01T09:40:03;7.03;;;2.30;;
11877;SDS011;5998;42.676;23.268;2023-04-01T09:42:45;6.37;;;2.00;;
11877;SDS011;5998;42.676;23.268;2023-04-01T09:45:35;5.67;;;2.13;;
11877;SDS011;5998;42.676;23.268;2023-04-01T09:48:14;5.80;;;2.07;;
11877;SDS011;5998;42.676;23.268;2023-04-01T09:50:59;4.90;;;1.93;;
11877;SDS011;5998;42.676;23.268;2023-04-01T09:53:36;5.57;;;2.33;;
11877;SDS011;5998;42.676;23.268;2023-04-01T09:59:56;4.20;;;2.10;;
11877;SDS011;5998;42.676;23.268;2023-04-01T10:02:51;5.43;;;2.30;;
11877;SDS011;5998;42.676;23.268;2023-04-01T10:05:49;6.43;;;3.90;;
11877;SDS011;5998;42.676;23.268;2023-04-01T10:09:05;5.63;;;2.33;;
11877;SDS011;5998;42.676;23.268;2023-04-01T10:12:07;7.73;;;2.27;;
11877;SDS011;5998;42.676;23.268;2023-04-01T10:15:00;7.77;;;3.93;;
11877;SDS011;5998;42.676;23.268;2023-04-01T10:18:08;5.57;;;2.83;;
11877;SDS011;5998;42.676;23.268;2023-04-01T10:23:55;5.97;;;3.00;;
11877;SDS011;5998;42.676;23.268;2023-04-01T10:30:04;5.27;;;3.13;;
11877;SDS011;5998;42.676;23.268;2023-04-01T10:33:14;4.77;;;2.60;;
11877;SDS011;5998;42.676;23.268;2023-04-01T10:36:05;7.80;;;3.10;;
11877;SDS011;5998;42.676;23.268;2023-04-01T10:42:18;7.53;;;2.10;;
11877;SDS011;5998;42.676;23.268;2023-04-01T10:48:35;11.60;;;3.47;;
11877;SDS011;5998;42.676;23.268;2023-04-01T10:51:36;6.13;;;3.50;;
11877;SDS011;5998;42.676;23.268;2023-04-01T10:54:36;1.70;;;1.60;;
11877;SDS011;5998;42.676;23.268;2023-04-01T10:57:14;9.47;;;2.67;;
11877;SDS011;5998;42.676;23.268;2023-04-01T11:00:03;5.33;;;2.80;;
11877;SDS011;5998;42.676;23.268;2023-04-01T11:02:58;5.53;;;2.53;;
11877;SDS011;5998;42.676;23.268;2023-04-01T11:21:43;7.17;;;2.27;;
11877;SDS011;5998;42.676;23.268;2023-04-01T11:24:25;3.40;;;1.83;;
11877;SDS011;5998;42.676;23.268;2023-04-01T11:27:13;3.13;;;1.70;;
11877;SDS011;5998;42.676;23.268;2023-04-01T11:29:54;5.80;;;1.87;;
11877;SDS011;5998;42.676;23.268;2023-04-01T11:32:43;5.97;;;2.07;;
11877;SDS011;5998;42.676;23.268;2023-04-01T11:38:35;7.53;;;2.07;;
11877;SDS011;5998;42.676;23.268;2023-04-01T11:41:15;8.73;;;2.30;;
11877;SDS011;5998;42.676;23.268;2023-04-01T11:43:54;6.30;;;2.17;;
11877;SDS011;5998;42.676;23.268;2023-04-01T11:46:37;4.43;;;2.00;;
11877;SDS011;5998;42.676;23.268;2023-04-01T11:49:16;6.70;;;2.30;;
11877;SDS011;5998;42.676;23.268;2023-04-01T11:51:55;5.50;;;2.40;;
11877;SDS011;5998;42.676;23.268;2023-04-01T11:57:38;7.17;;;2.33;;
11877;SDS011;5998;42.676;23.268;2023-04-01T12:00:33;6.53;;;2.23;;
11877;SDS011;5998;42.676;23.268;2023-04-01T12:03:24;6.40;;;2.80;;
11877;SDS011;5998;42.676;23.268;2023-04-01T12:06:16;3.90;;;2.57;;
11877;SDS011;5998;42.676;23.268;2023-04-01T12:08:50;4.77;;;2.10;;
11877;SDS011;5998;42.676;23.268;2023-04-01T12:11:26;4.23;;;2.30;;
11877;SDS011;5998;42.676;23.268;2023-04-01T12:14:03;3.23;;;2.47;;
11877;SDS011;5998;42.676;23.268;2023-04-01T12:16:43;2.87;;;2.40;;
11877;SDS011;5998;42.676;23.268;2023-04-01T12:19:26;7.03;;;2.80;;
11877;SDS011;5998;42.676;23.268;2023-04-01T12:24:55;4.07;;;2.60;;
11877;SDS011;5998;42.676;23.268;2023-04-01T12:27:45;4.47;;;2.60;;
11877;SDS011;5998;42.676;23.268;2023-04-01T12:30:40;4.63;;;2.80;;
11877;SDS011;5998;42.676;23.268;2023-04-01T12:36:21;6.67;;;2.97;;
11877;SDS011;5998;42.676;23.268;2023-04-01T12:39:11;5.93;;;3.03;;
11877;SDS011;5998;42.676;23.268;2023-04-01T12:41:48;2.93;;;2.00;;
11877;SDS011;5998;42.676;23.268;2023-04-01T12:44:42;4.30;;;2.20;;
11877;SDS011;5998;42.676;23.268;2023-04-01T12:50:31;4.67;;;2.53;;
11877;SDS011;5998;42.676;23.268;2023-04-01T12:53:16;7.07;;;2.63;;
11877;SDS011;5998;42.676;23.268;2023-04-01T12:56:02;4.63;;;2.57;;
11877;SDS011;5998;42.676;23.268;2023-04-01T12:58:37;4.90;;;3.27;;
11877;SDS011;5998;42.676;23.268;2023-04-01T13:01:35;8.20;;;2.83;;
11877;SDS011;5998;42.676;23.268;2023-04-01T13:04:24;4.57;;;2.90;;
11877;SDS011;5998;42.676;23.268;2023-04-01T13:07:14;4.13;;;3.33;;
11877;SDS011;5998;42.676;23.268;2023-04-01T13:09:56;5.60;;;3.40;;
11877;SDS011;5998;42.676;23.268;2023-04-01T13:12:48;4.70;;;3.80;;
11877;SDS011;5998;42.676;23.268;2023-04-01T13:15:28;4.67;;;3.23;;
11877;SDS011;5998;42.676;23.268;2023-04-01T13:18:04;5.40;;;2.80;;
11877;SDS011;5998;42.676;23.268;2023-04-01T13:20:44;3.37;;;2.33;;
11877;SDS011;5998;42.676;23.268;2023-04-01T13:23:22;4.93;;;2.80;;
11877;SDS011;5998;42.676;23.268;2023-04-01T13:26:02;4.23;;;2.50;;
11877;SDS011;5998;42.676;23.268;2023-04-01T13:28:37;5.40;;;2.10;;
11877;SDS011;5998;42.676;23.268;2023-04-01T13:31:08;3.13;;;2.20;;
11877;SDS011;5998;42.676;23.268;2023-04-01T13:33:55;3.70;;;1.97;;
11877;SDS011;5998;42.676;23.268;2023-04-01T13:36:33;1.70;;;1.53;;
11877;SDS011;5998;42.676;23.268;2023-04-01T13:39:11;1.53;;;1.43;;
11877;SDS011;5998;42.676;23.268;2023-04-01T13:41:53;1.37;;;1.27;;
11877;SDS011;5998;42.676;23.268;2023-04-01T13:44:32;1.73;;;1.50;;
11877;SDS011;5998;42.676;23.268;2023-04-01T13:47:13;1.63;;;1.40;;
11877;SDS011;5998;42.676;23.268;2023-04-01T13:55:53;1.63;;;1.30;;
11877;SDS011;5998;42.676;23.268;2023-04-01T14:01:19;1.93;;;1.50;;
11877;SDS011;5998;42.676;23.268;2023-04-01T14:04:01;2.43;;;1.53;;
11877;SDS011;5998;42.676;23.268;2023-04-01T14:06:49;3.60;;;2.10;;
11877;SDS011;5998;42.676;23.268;2023-04-01T14:09:32;2.67;;;1.80;;
11877;SDS011;5998;42.676;23.268;2023-04-01T14:12:12;3.73;;;1.60;;
11877;SDS011;5998;42.676;23.268;2023-04-01T14:14:54;1.70;;;1.40;;
11877;SDS011;5998;42.676;23.268;2023-04-01T14:17:35;3.43;;;1.67;;
11877;SDS011;5998;42.676;23.268;2023-04-01T14:20:22;1.70;;;1.60;;
11877;SDS011;5998;42.676;23.268;2023-04-01T14:23:05;1.40;;;1.27;;
11877;SDS011;5998;42.676;23.268;2023-04-01T14:28:46;4.80;;;1.73;;
11877;SDS011;5998;42.676;23.268;2023-04-01T14:31:28;4.23;;;1.70;;
11877;SDS011;5998;42.676;23.268;2023-04-01T14:34:09;2.07;;;1.50;;
11877;SDS011;5998;42.676;23.268;2023-04-01T14:36:48;1.17;;;1.10;;
11877;SDS011;5998;42.676;23.268;2023-04-01T14:39:29;1.50;;;1.40;;
11877;SDS011;5998;42.676;23.268;2023-04-01T14:42:16;1.90;;;1.30;;
11877;SDS011;5998;42.676;23.268;2023-04-01T14:44:55;2.73;;;1.40;;
11877;SDS011;5998;42.676;23.268;2023-04-01T14:47:46;1.30;;;1.20;;
11877;SDS011;5998;42.676;23.268;2023-04-01T14:50:17;1.40;;;1.20;;
11877;SDS011;5998;42.676;23.268;2023-04-01T14:52:54;1.97;;;1.20;;
11877;SDS011;5998;42.676;23.268;2023-04-01T14:55:27;1.00;;;0.90;;
11877;SDS011;5998;42.676;23.268;2023-04-01T14:57:58;1.83;;;1.10;;
11877;SDS011;5998;42.676;23.268;2023-04-01T15:00:31;1.87;;;1.10;;
11877;SDS011;5998;42.676;23.268;2023-04-01T15:03:14;1.37;;;1.10;;
11877;SDS011;5998;42.676;23.268;2023-04-01T15:05:51;4.13;;;1.70;;
11877;SDS011;5998;42.676;23.268;2023-04-01T15:08:22;2.33;;;1.80;;
11877;SDS011;5998;42.676;23.268;2023-04-01T15:10:53;2.80;;;1.80;;
11877;SDS011;5998;42.676;23.268;2023-04-01T15:16:24;2.27;;;1.63;;
11877;SDS011;5998;42.676;23.268;2023-04-01T15:18:57;1.87;;;1.60;;
11877;SDS011;5998;42.676;23.268;2023-04-01T15:21:43;2.80;;;1.57;;
11877;SDS011;5998;42.676;23.268;2023-04-01T15:24:19;1.67;;;1.57;;
11877;SDS011;5998;42.676;23.268;2023-04-01T15:29:58;2.67;;;1.77;;
11877;SDS011;5998;42.676;23.268;2023-04-01T15:32:50;3.93;;;2.10;;
11877;SDS011;5998;42.676;23.268;2023-04-01T15:35:31;1.97;;;1.77;;
11877;SDS011;5998;42.676;23.268;2023-04-01T15:38:11;2.50;;;1.80;;
11877;SDS011;5998;42.676;23.268;2023-04-01T15:40:51;2.10;;;1.63;;
11877;SDS011;5998;42.676;23.268;2023-04-01T15:43:27;2.20;;;1.63;;
11877;SDS011;5998;42.676;23.268;2023-04-01T15:46:09;3.57;;;1.87;;
11877;SDS011;5998;42.676;23.268;2023-04-01T15:48:47;2.03;;;1.23;;
11877;SDS011;5998;42.676;23.268;2023-04-01T15:51:29;1.60;;;1.23;;
11877;SDS011;5998;42.676;23.268;2023-04-01T15:54:16;3.23;;;1.10;;
11877;SDS011;5998;42.676;23.268;2023-04-01T15:56:53;1.30;;;1.10;;
11877;SDS011;5998;42.676;23.268;2023-04-01T15:59:44;1.90;;;1.40;;
11877;SDS011;5998;42.676;23.268;2023-04-01T16:02:22;5.67;;;1.60;;
11877;SDS011;5998;42.676;23.268;2023-04-01T16:04:58;2.00;;;1.73;;
11877;SDS011;5998;42.676;23.268;2023-04-01T16:07:40;2.50;;;1.87;;
11877;SDS011;5998;42.676;23.268;2023-04-01T16:10:19;1.80;;;1.63;;
11877;SDS011;5998;42.676;23.268;2023-04-01T16:12:57;2.70;;;2.03;;
11877;SDS011;5998;42.676;23.268;2023-04-01T16:15:43;3.43;;;2.10;;
11877;SDS011;5998;42.676;23.268;2023-04-01T16:18:22;2.47;;;2.27;;
11877;SDS011;5998;42.676;23.268;2023-04-01T16:21:04;2.30;;;2.10;;
11877;SDS011;5998;42.676;23.268;2023-04-01T16:23:39;3.10;;;2.80;;
11877;SDS011;5998;42.676;23.268;2023-04-01T16:26:15;2.50;;;2.30;;
11877;SDS011;5998;42.676;23.268;2023-04-01T16:28:50;3.10;;;2.80;;
11877;SDS011;5998;42.676;23.268;2023-04-01T16:31:27;3.37;;;2.50;;
11877;SDS011;5998;42.676;23.268;2023-04-01T16:34:01;3.33;;;2.50;;
11877;SDS011;5998;42.676;23.268;2023-04-01T16:36:35;3.00;;;2.30;;
11877;SDS011;5998;42.676;23.268;2023-04-01T16:39:14;2.57;;;2.30;;
11877;SDS011;5998;42.676;23.268;2023-04-01T16:41:51;2.60;;;2.30;;
11877;SDS011;5998;42.676;23.268;2023-04-01T16:44:44;2.10;;;2.00;;
11877;SDS011;5998;42.676;23.268;2023-04-01T16:47:16;3.37;;;2.00;;
11877;SDS011;5998;42.676;23.268;2023-04-01T16:49:50;2.17;;;2.00;;
11877;SDS011;5998;42.676;23.268;2023-04-01T16:52:34;1.80;;;1.70;;
11877;SDS011;5998;42.676;23.268;2023-04-01T16:55:12;2.13;;;2.03;;